< < Back
Terminal Aerodrome Forecast


Current Version              Previous Versions:   1  2  3  4  5  6  7  8  9  

Terminal Aerodrome Forecast

388
FTUS44 KMOB 310011 RRA
TAFPNS
TAF
KPNS 310011Z 3100/3124 24007KT P6SM FEW060 SCT250
     FM310300 31004KT P6SM FEW250
     FM311500 33005KT P6SM SCT250
     FM311800 19010KT P6SM VCTS SCT040CB SCT250=



Latest METAR

885
SAUS70 KWBC 310356
MTRPNS
METAR KPNS 310353Z AUTO 23004KT 10SM CLR 26/23 A2995 RMK AO2 SLP144
T02560228 $


USA.gov is the U.S. government's official web portal to all federal, state and local government web resources and services.